sensor_id;sensor_type;location;lat;lon;timestamp;P1;durP1;ratioP1;P2;durP2;ratioP2
19193;SDS011;9729;52.296;13.260;2023-01-23T00:02:03;36.30;;;17.33;;
19193;SDS011;9729;52.296;13.260;2023-01-23T00:04:29;32.80;;;17.40;;
19193;SDS011;9729;52.296;13.260;2023-01-23T00:06:56;32.33;;;17.57;;
19193;SDS011;9729;52.296;13.260;2023-01-23T00:09:22;34.57;;;18.20;;
19193;SDS011;9729;52.296;13.260;2023-01-23T00:11:48;35.90;;;17.73;;
19193;SDS011;9729;52.296;13.260;2023-01-23T00:14:16;31.10;;;16.20;;
19193;SDS011;9729;52.296;13.260;2023-01-23T00:16:42;35.20;;;18.17;;
19193;SDS011;9729;52.296;13.260;2023-01-23T00:19:09;40.00;;;17.03;;
19193;SDS011;9729;52.296;13.260;2023-01-23T00:21:35;38.03;;;19.17;;
19193;SDS011;9729;52.296;13.260;2023-01-23T00:24:02;36.27;;;18.47;;
19193;SDS011;9729;52.296;13.260;2023-01-23T00:26:29;35.67;;;18.00;;
19193;SDS011;9729;52.296;13.260;2023-01-23T00:28:57;35.80;;;18.13;;
19193;SDS011;9729;52.296;13.260;2023-01-23T00:31:26;35.00;;;17.17;;
19193;SDS011;9729;52.296;13.260;2023-01-23T00:33:55;34.50;;;17.80;;
19193;SDS011;9729;52.296;13.260;2023-01-23T00:36:22;35.53;;;18.80;;
19193;SDS011;9729;52.296;13.260;2023-01-23T00:38:49;34.90;;;18.23;;
19193;SDS011;9729;52.296;13.260;2023-01-23T00:41:16;37.17;;;18.53;;
19193;SDS011;9729;52.296;13.260;2023-01-23T00:43:43;35.87;;;17.53;;
19193;SDS011;9729;52.296;13.260;2023-01-23T00:46:10;37.53;;;17.80;;
19193;SDS011;9729;52.296;13.260;2023-01-23T00:48:38;35.33;;;18.47;;
19193;SDS011;9729;52.296;13.260;2023-01-23T00:51:05;40.03;;;18.63;;
19193;SDS011;9729;52.296;13.260;2023-01-23T00:53:34;40.93;;;18.60;;
19193;SDS011;9729;52.296;13.260;2023-01-23T00:56:01;32.73;;;17.87;;
19193;SDS011;9729;52.296;13.260;2023-01-23T00:58:27;40.90;;;18.33;;
19193;SDS011;9729;52.296;13.260;2023-01-23T01:00:53;41.13;;;18.30;;
19193;SDS011;9729;52.296;13.260;2023-01-23T01:03:20;38.43;;;18.20;;
19193;SDS011;9729;52.296;13.260;2023-01-23T01:05:53;40.17;;;18.57;;
19193;SDS011;9729;52.296;13.260;2023-01-23T01:08:20;35.33;;;19.07;;
19193;SDS011;9729;52.296;13.260;2023-01-23T01:10:46;34.67;;;17.60;;
19193;SDS011;9729;52.296;13.260;2023-01-23T01:13:12;42.23;;;20.07;;
19193;SDS011;9729;52.296;13.260;2023-01-23T01:15:43;35.17;;;18.27;;
19193;SDS011;9729;52.296;13.260;2023-01-23T01:18:09;39.57;;;19.97;;
19193;SDS011;9729;52.296;13.260;2023-01-23T01:20:38;38.07;;;18.23;;
19193;SDS011;9729;52.296;13.260;2023-01-23T01:23:07;43.50;;;20.70;;
19193;SDS011;9729;52.296;13.260;2023-01-23T01:25:34;38.73;;;18.90;;
19193;SDS011;9729;52.296;13.260;2023-01-23T01:28:00;42.60;;;20.37;;
19193;SDS011;9729;52.296;13.260;2023-01-23T01:30:28;41.63;;;20.63;;
19193;SDS011;9729;52.296;13.260;2023-01-23T01:32:54;41.00;;;21.10;;
19193;SDS011;9729;52.296;13.260;2023-01-23T01:35:22;38.97;;;18.57;;
19193;SDS011;9729;52.296;13.260;2023-01-23T01:37:48;42.90;;;20.17;;
19193;SDS011;9729;52.296;13.260;2023-01-23T01:42:47;39.77;;;19.20;;
19193;SDS011;9729;52.296;13.260;2023-01-23T01:48:18;37.17;;;19.37;;
19193;SDS011;9729;52.296;13.260;2023-01-23T01:50:47;40.40;;;19.67;;
19193;SDS011;9729;52.296;13.260;2023-01-23T01:53:13;43.47;;;20.20;;
19193;SDS011;9729;52.296;13.260;2023-01-23T01:55:41;41.00;;;20.40;;
19193;SDS011;9729;52.296;13.260;2023-01-23T01:58:08;48.37;;;20.73;;
19193;SDS011;9729;52.296;13.260;2023-01-23T02:00:34;43.37;;;20.07;;
19193;SDS011;9729;52.296;13.260;2023-01-23T02:03:01;44.33;;;19.97;;
19193;SDS011;9729;52.296;13.260;2023-01-23T02:05:29;45.53;;;19.60;;
19193;SDS011;9729;52.296;13.260;2023-01-23T02:07:58;41.73;;;20.73;;
19193;SDS011;9729;52.296;13.260;2023-01-23T02:10:28;42.37;;;18.50;;
19193;SDS011;9729;52.296;13.260;2023-01-23T02:15:45;47.70;;;20.00;;
19193;SDS011;9729;52.296;13.260;2023-01-23T02:18:12;41.60;;;19.47;;
19193;SDS011;9729;52.296;13.260;2023-01-23T02:20:39;46.57;;;19.37;;
19193;SDS011;9729;52.296;13.260;2023-01-23T02:23:10;42.17;;;19.70;;
19193;SDS011;9729;52.296;13.260;2023-01-23T02:25:49;41.93;;;20.07;;
19193;SDS011;9729;52.296;13.260;2023-01-23T02:28:20;45.60;;;20.33;;
19193;SDS011;9729;52.296;13.260;2023-01-23T02:30:57;47.03;;;19.50;;
19193;SDS011;9729;52.296;13.260;2023-01-23T02:33:43;48.87;;;20.70;;
19193;SDS011;9729;52.296;13.260;2023-01-23T02:36:12;48.20;;;20.97;;
19193;SDS011;9729;52.296;13.260;2023-01-23T02:38:40;45.60;;;20.27;;
19193;SDS011;9729;52.296;13.260;2023-01-23T02:41:15;44.93;;;20.43;;
19193;SDS011;9729;52.296;13.260;2023-01-23T02:43:44;44.07;;;19.07;;
19193;SDS011;9729;52.296;13.260;2023-01-23T02:46:11;51.63;;;21.07;;
19193;SDS011;9729;52.296;13.260;2023-01-23T02:48:39;43.40;;;20.47;;
19193;SDS011;9729;52.296;13.260;2023-01-23T02:51:07;49.73;;;21.87;;
19193;SDS011;9729;52.296;13.260;2023-01-23T02:53:34;44.33;;;21.43;;
19193;SDS011;9729;52.296;13.260;2023-01-23T02:56:02;42.57;;;20.17;;
19193;SDS011;9729;52.296;13.260;2023-01-23T02:58:30;46.97;;;21.33;;
19193;SDS011;9729;52.296;13.260;2023-01-23T03:01:15;49.87;;;21.47;;
19193;SDS011;9729;52.296;13.260;2023-01-23T03:03:43;44.60;;;18.97;;
19193;SDS011;9729;52.296;13.260;2023-01-23T03:06:10;52.03;;;23.50;;
19193;SDS011;9729;52.296;13.260;2023-01-23T03:08:36;45.80;;;20.40;;
19193;SDS011;9729;52.296;13.260;2023-01-23T03:11:11;49.87;;;22.70;;
19193;SDS011;9729;52.296;13.260;2023-01-23T03:13:40;48.77;;;21.63;;
19193;SDS011;9729;52.296;13.260;2023-01-23T03:16:06;47.73;;;21.73;;
19193;SDS011;9729;52.296;13.260;2023-01-23T03:18:37;56.20;;;24.40;;
19193;SDS011;9729;52.296;13.260;2023-01-23T03:21:04;57.37;;;25.20;;
19193;SDS011;9729;52.296;13.260;2023-01-23T03:23:36;59.90;;;22.90;;
19193;SDS011;9729;52.296;13.260;2023-01-23T03:26:04;46.67;;;22.57;;
19193;SDS011;9729;52.296;13.260;2023-01-23T03:28:31;55.10;;;22.50;;
19193;SDS011;9729;52.296;13.260;2023-01-23T03:31:16;49.27;;;23.30;;
19193;SDS011;9729;52.296;13.260;2023-01-23T03:33:42;51.80;;;24.33;;
19193;SDS011;9729;52.296;13.260;2023-01-23T03:36:09;47.80;;;22.13;;
19193;SDS011;9729;52.296;13.260;2023-01-23T03:38:36;55.60;;;23.30;;
19193;SDS011;9729;52.296;13.260;2023-01-23T03:41:03;52.23;;;22.37;;
19193;SDS011;9729;52.296;13.260;2023-01-23T03:43:48;47.40;;;20.97;;
19193;SDS011;9729;52.296;13.260;2023-01-23T03:46:17;54.83;;;21.23;;
19193;SDS011;9729;52.296;13.260;2023-01-23T03:48:43;55.53;;;23.17;;
19193;SDS011;9729;52.296;13.260;2023-01-23T03:51:09;55.07;;;22.10;;
19193;SDS011;9729;52.296;13.260;2023-01-23T03:53:36;59.43;;;23.50;;
19193;SDS011;9729;52.296;13.260;2023-01-23T03:56:02;50.53;;;22.60;;
19193;SDS011;9729;52.296;13.260;2023-01-23T03:58:30;64.20;;;25.90;;
19193;SDS011;9729;52.296;13.260;2023-01-23T04:01:03;59.27;;;23.87;;
19193;SDS011;9729;52.296;13.260;2023-01-23T04:03:34;56.97;;;23.53;;
19193;SDS011;9729;52.296;13.260;2023-01-23T04:06:01;52.67;;;23.00;;
19193;SDS011;9729;52.296;13.260;2023-01-23T04:08:27;57.90;;;25.43;;
19193;SDS011;9729;52.296;13.260;2023-01-23T04:11:05;60.90;;;23.97;;
19193;SDS011;9729;52.296;13.260;2023-01-23T04:13:32;57.77;;;22.20;;
19193;SDS011;9729;52.296;13.260;2023-01-23T04:15:59;63.33;;;25.03;;
19193;SDS011;9729;52.296;13.260;2023-01-23T04:18:26;61.17;;;26.50;;
19193;SDS011;9729;52.296;13.260;2023-01-23T04:20:54;52.70;;;23.23;;
19193;SDS011;9729;52.296;13.260;2023-01-23T04:23:21;64.37;;;24.63;;
19193;SDS011;9729;52.296;13.260;2023-01-23T04:25:48;57.77;;;26.07;;
19193;SDS011;9729;52.296;13.260;2023-01-23T04:28:18;63.50;;;26.60;;
19193;SDS011;9729;52.296;13.260;2023-01-23T04:30:45;56.87;;;23.37;;
19193;SDS011;9729;52.296;13.260;2023-01-23T04:33:11;61.20;;;26.53;;
19193;SDS011;9729;52.296;13.260;2023-01-23T04:35:38;58.93;;;24.60;;
19193;SDS011;9729;52.296;13.260;2023-01-23T04:38:05;62.67;;;26.40;;
19193;SDS011;9729;52.296;13.260;2023-01-23T04:40:32;61.07;;;24.90;;
19193;SDS011;9729;52.296;13.260;2023-01-23T04:42:59;55.83;;;23.77;;
19193;SDS011;9729;52.296;13.260;2023-01-23T04:45:25;62.80;;;25.27;;
19193;SDS011;9729;52.296;13.260;2023-01-23T04:47:53;61.93;;;23.97;;
19193;SDS011;9729;52.296;13.260;2023-01-23T04:50:19;57.47;;;25.10;;
19193;SDS011;9729;52.296;13.260;2023-01-23T04:52:45;71.70;;;26.37;;
19193;SDS011;9729;52.296;13.260;2023-01-23T04:55:13;60.00;;;25.23;;
19193;SDS011;9729;52.296;13.260;2023-01-23T04:57:40;59.87;;;24.83;;
19193;SDS011;9729;52.296;13.260;2023-01-23T05:00:07;61.67;;;25.87;;
19193;SDS011;9729;52.296;13.260;2023-01-23T05:02:36;62.23;;;26.77;;
19193;SDS011;9729;52.296;13.260;2023-01-23T05:05:03;53.97;;;24.20;;
19193;SDS011;9729;52.296;13.260;2023-01-23T05:07:30;58.77;;;24.40;;
19193;SDS011;9729;52.296;13.260;2023-01-23T05:09:57;61.77;;;25.37;;
19193;SDS011;9729;52.296;13.260;2023-01-23T05:12:24;63.13;;;26.13;;
19193;SDS011;9729;52.296;13.260;2023-01-23T05:14:51;61.40;;;24.90;;
19193;SDS011;9729;52.296;13.260;2023-01-23T05:17:17;56.60;;;25.63;;
19193;SDS011;9729;52.296;13.260;2023-01-23T05:19:44;55.47;;;24.20;;
19193;SDS011;9729;52.296;13.260;2023-01-23T05:22:10;61.27;;;25.20;;
19193;SDS011;9729;52.296;13.260;2023-01-23T05:24:41;64.77;;;27.03;;
19193;SDS011;9729;52.296;13.260;2023-01-23T05:27:07;59.90;;;26.73;;
19193;SDS011;9729;52.296;13.260;2023-01-23T05:29:35;62.97;;;24.20;;
19193;SDS011;9729;52.296;13.260;2023-01-23T05:32:01;68.67;;;27.53;;
19193;SDS011;9729;52.296;13.260;2023-01-23T05:34:28;61.57;;;27.57;;
19193;SDS011;9729;52.296;13.260;2023-01-23T05:36:54;54.10;;;24.97;;
19193;SDS011;9729;52.296;13.260;2023-01-23T05:39:21;60.20;;;24.83;;
19193;SDS011;9729;52.296;13.260;2023-01-23T05:41:47;61.30;;;25.90;;
19193;SDS011;9729;52.296;13.260;2023-01-23T05:44:14;65.70;;;25.97;;
19193;SDS011;9729;52.296;13.260;2023-01-23T05:46:42;63.73;;;27.50;;
19193;SDS011;9729;52.296;13.260;2023-01-23T05:49:08;64.17;;;25.57;;
19193;SDS011;9729;52.296;13.260;2023-01-23T05:51:35;56.30;;;25.67;;
19193;SDS011;9729;52.296;13.260;2023-01-23T05:54:01;62.47;;;25.70;;
19193;SDS011;9729;52.296;13.260;2023-01-23T05:56:28;55.73;;;23.63;;
19193;SDS011;9729;52.296;13.260;2023-01-23T05:58:54;68.33;;;26.40;;
19193;SDS011;9729;52.296;13.260;2023-01-23T06:01:21;62.80;;;25.10;;
19193;SDS011;9729;52.296;13.260;2023-01-23T06:03:48;63.93;;;25.80;;
19193;SDS011;9729;52.296;13.260;2023-01-23T06:06:15;59.43;;;25.83;;
19193;SDS011;9729;52.296;13.260;2023-01-23T06:08:41;59.77;;;25.53;;
19193;SDS011;9729;52.296;13.260;2023-01-23T06:11:08;68.47;;;26.30;;
19193;SDS011;9729;52.296;13.260;2023-01-23T06:13:34;61.87;;;25.80;;
19193;SDS011;9729;52.296;13.260;2023-01-23T06:16:01;61.20;;;24.53;;
19193;SDS011;9729;52.296;13.260;2023-01-23T06:18:30;56.73;;;25.60;;
19193;SDS011;9729;52.296;13.260;2023-01-23T06:20:59;57.17;;;24.83;;
19193;SDS011;9729;52.296;13.260;2023-01-23T06:23:27;65.57;;;26.80;;
19193;SDS011;9729;52.296;13.260;2023-01-23T06:25:53;58.27;;;25.73;;
19193;SDS011;9729;52.296;13.260;2023-01-23T06:28:24;59.07;;;25.40;;
19193;SDS011;9729;52.296;13.260;2023-01-23T06:30:50;60.33;;;26.47;;
19193;SDS011;9729;52.296;13.260;2023-01-23T06:33:17;63.10;;;28.93;;
19193;SDS011;9729;52.296;13.260;2023-01-23T06:35:43;60.80;;;27.17;;
19193;SDS011;9729;52.296;13.260;2023-01-23T06:38:11;59.97;;;26.40;;
19193;SDS011;9729;52.296;13.260;2023-01-23T06:40:37;62.70;;;25.47;;
19193;SDS011;9729;52.296;13.260;2023-01-23T06:43:05;56.57;;;25.67;;
19193;SDS011;9729;52.296;13.260;2023-01-23T06:45:31;59.73;;;25.50;;
19193;SDS011;9729;52.296;13.260;2023-01-23T06:47:57;53.07;;;24.70;;
19193;SDS011;9729;52.296;13.260;2023-01-23T06:50:24;56.23;;;23.30;;
19193;SDS011;9729;52.296;13.260;2023-01-23T06:52:50;58.17;;;24.57;;
19193;SDS011;9729;52.296;13.260;2023-01-23T06:55:18;49.63;;;23.77;;
19193;SDS011;9729;52.296;13.260;2023-01-23T06:57:47;63.13;;;26.83;;
19193;SDS011;9729;52.296;13.260;2023-01-23T07:00:14;57.53;;;26.07;;
19193;SDS011;9729;52.296;13.260;2023-01-23T07:02:40;55.77;;;25.57;;
19193;SDS011;9729;52.296;13.260;2023-01-23T07:05:07;58.50;;;25.10;;
19193;SDS011;9729;52.296;13.260;2023-01-23T07:07:34;57.27;;;24.27;;
19193;SDS011;9729;52.296;13.260;2023-01-23T07:10:08;59.13;;;25.73;;
19193;SDS011;9729;52.296;13.260;2023-01-23T07:12:37;56.67;;;24.23;;
19193;SDS011;9729;52.296;13.260;2023-01-23T07:15:03;66.13;;;26.93;;
19193;SDS011;9729;52.296;13.260;2023-01-23T07:17:32;51.93;;;24.07;;
19193;SDS011;9729;52.296;13.260;2023-01-23T07:20:02;55.80;;;24.93;;
19193;SDS011;9729;52.296;13.260;2023-01-23T07:22:31;53.40;;;23.83;;
19193;SDS011;9729;52.296;13.260;2023-01-23T07:24:58;55.77;;;23.33;;
19193;SDS011;9729;52.296;13.260;2023-01-23T07:27:25;52.43;;;23.67;;
19193;SDS011;9729;52.296;13.260;2023-01-23T07:29:53;50.40;;;21.07;;
19193;SDS011;9729;52.296;13.260;2023-01-23T07:32:20;50.77;;;21.93;;
19193;SDS011;9729;52.296;13.260;2023-01-23T07:34:46;52.57;;;24.27;;
19193;SDS011;9729;52.296;13.260;2023-01-23T07:37:12;53.13;;;23.90;;
19193;SDS011;9729;52.296;13.260;2023-01-23T07:39:39;51.30;;;23.70;;
19193;SDS011;9729;52.296;13.260;2023-01-23T07:42:05;57.50;;;24.97;;
19193;SDS011;9729;52.296;13.260;2023-01-23T07:44:32;55.53;;;25.57;;
19193;SDS011;9729;52.296;13.260;2023-01-23T07:47:00;52.33;;;23.90;;
19193;SDS011;9729;52.296;13.260;2023-01-23T07:49:26;45.20;;;20.40;;
19193;SDS011;9729;52.296;13.260;2023-01-23T07:51:52;52.73;;;23.37;;
19193;SDS011;9729;52.296;13.260;2023-01-23T07:54:19;54.67;;;23.30;;
19193;SDS011;9729;52.296;13.260;2023-01-23T07:56:47;43.17;;;22.97;;
19193;SDS011;9729;52.296;13.260;2023-01-23T07:59:14;49.90;;;23.23;;
19193;SDS011;9729;52.296;13.260;2023-01-23T08:01:40;52.90;;;24.77;;
19193;SDS011;9729;52.296;13.260;2023-01-23T08:04:11;55.40;;;24.97;;
19193;SDS011;9729;52.296;13.260;2023-01-23T08:06:37;51.73;;;24.97;;
19193;SDS011;9729;52.296;13.260;2023-01-23T08:09:04;49.90;;;22.10;;
19193;SDS011;9729;52.296;13.260;2023-01-23T08:11:31;42.73;;;18.50;;
19193;SDS011;9729;52.296;13.260;2023-01-23T08:14:00;53.13;;;23.60;;
19193;SDS011;9729;52.296;13.260;2023-01-23T08:16:27;52.57;;;24.97;;
19193;SDS011;9729;52.296;13.260;2023-01-23T08:18:53;50.13;;;21.37;;
19193;SDS011;9729;52.296;13.260;2023-01-23T08:21:24;43.40;;;21.00;;
19193;SDS011;9729;52.296;13.260;2023-01-23T08:23:50;45.97;;;22.10;;
19193;SDS011;9729;52.296;13.260;2023-01-23T08:26:18;46.93;;;23.00;;
19193;SDS011;9729;52.296;13.260;2023-01-23T08:28:47;49.20;;;21.63;;
19193;SDS011;9729;52.296;13.260;2023-01-23T08:31:14;50.33;;;24.80;;
19193;SDS011;9729;52.296;13.260;2023-01-23T08:33:40;47.60;;;22.00;;
19193;SDS011;9729;52.296;13.260;2023-01-23T08:36:07;55.77;;;23.70;;
19193;SDS011;9729;52.296;13.260;2023-01-23T08:38:35;45.83;;;20.97;;
19193;SDS011;9729;52.296;13.260;2023-01-23T08:41:03;55.17;;;26.83;;
19193;SDS011;9729;52.296;13.260;2023-01-23T08:43:30;47.87;;;22.50;;
19193;SDS011;9729;52.296;13.260;2023-01-23T08:45:57;49.20;;;24.37;;
19193;SDS011;9729;52.296;13.260;2023-01-23T08:48:25;46.40;;;24.20;;
19193;SDS011;9729;52.296;13.260;2023-01-23T08:50:57;48.23;;;23.57;;
19193;SDS011;9729;52.296;13.260;2023-01-23T08:53:24;47.17;;;22.30;;
19193;SDS011;9729;52.296;13.260;2023-01-23T08:55:52;50.30;;;24.27;;
19193;SDS011;9729;52.296;13.260;2023-01-23T08:58:18;53.47;;;25.37;;
19193;SDS011;9729;52.296;13.260;2023-01-23T09:00:46;58.13;;;25.83;;
19193;SDS011;9729;52.296;13.260;2023-01-23T09:03:16;57.43;;;25.20;;
19193;SDS011;9729;52.296;13.260;2023-01-23T09:05:42;50.83;;;23.73;;
19193;SDS011;9729;52.296;13.260;2023-01-23T09:08:08;50.93;;;24.70;;
19193;SDS011;9729;52.296;13.260;2023-01-23T09:10:35;45.13;;;23.10;;
19193;SDS011;9729;52.296;13.260;2023-01-23T09:13:03;48.00;;;24.93;;
19193;SDS011;9729;52.296;13.260;2023-01-23T09:15:32;54.63;;;24.40;;
19193;SDS011;9729;52.296;13.260;2023-01-23T09:17:58;50.97;;;24.37;;
19193;SDS011;9729;52.296;13.260;2023-01-23T09:20:25;55.03;;;24.50;;
19193;SDS011;9729;52.296;13.260;2023-01-23T09:22:53;54.20;;;25.87;;
19193;SDS011;9729;52.296;13.260;2023-01-23T09:25:19;57.27;;;26.53;;
19193;SDS011;9729;52.296;13.260;2023-01-23T09:27:46;45.77;;;21.27;;
19193;SDS011;9729;52.296;13.260;2023-01-23T09:30:14;49.03;;;23.57;;
19193;SDS011;9729;52.296;13.260;2023-01-23T09:32:41;50.70;;;25.00;;
19193;SDS011;9729;52.296;13.260;2023-01-23T09:35:08;50.43;;;24.53;;
19193;SDS011;9729;52.296;13.260;2023-01-23T09:37:35;59.30;;;23.83;;
19193;SDS011;9729;52.296;13.260;2023-01-23T09:40:16;52.33;;;23.80;;
19193;SDS011;9729;52.296;13.260;2023-01-23T09:42:44;55.80;;;25.80;;
19193;SDS011;9729;52.296;13.260;2023-01-23T09:45:15;53.97;;;24.87;;
19193;SDS011;9729;52.296;13.260;2023-01-23T09:47:46;56.37;;;23.87;;
19193;SDS011;9729;52.296;13.260;2023-01-23T09:50:17;51.97;;;25.10;;
19193;SDS011;9729;52.296;13.260;2023-01-23T09:52:47;53.20;;;25.13;;
19193;SDS011;9729;52.296;13.260;2023-01-23T09:55:20;50.20;;;24.10;;
19193;SDS011;9729;52.296;13.260;2023-01-23T09:57:50;50.97;;;24.73;;
19193;SDS011;9729;52.296;13.260;2023-01-23T10:00:21;53.63;;;24.03;;
19193;SDS011;9729;52.296;13.260;2023-01-23T10:02:49;46.33;;;24.93;;
19193;SDS011;9729;52.296;13.260;2023-01-23T10:05:17;50.60;;;23.73;;
19193;SDS011;9729;52.296;13.260;2023-01-23T10:07:55;56.23;;;24.77;;
19193;SDS011;9729;52.296;13.260;2023-01-23T10:13:21;50.73;;;24.83;;
19193;SDS011;9729;52.296;13.260;2023-01-23T10:16:01;55.77;;;25.93;;
19193;SDS011;9729;52.296;13.260;2023-01-23T10:18:47;46.67;;;23.00;;
19193;SDS011;9729;52.296;13.260;2023-01-23T10:21:27;52.37;;;24.87;;
19193;SDS011;9729;52.296;13.260;2023-01-23T10:23:58;51.40;;;23.30;;
19193;SDS011;9729;52.296;13.260;2023-01-23T10:26:28;56.37;;;23.70;;
19193;SDS011;9729;52.296;13.260;2023-01-23T10:28:56;50.57;;;26.70;;
19193;SDS011;9729;52.296;13.260;2023-01-23T10:31:29;51.70;;;24.83;;
19193;SDS011;9729;52.296;13.260;2023-01-23T10:34:02;52.43;;;24.20;;
19193;SDS011;9729;52.296;13.260;2023-01-23T10:36:33;53.00;;;24.90;;
19193;SDS011;9729;52.296;13.260;2023-01-23T10:39:03;42.77;;;22.00;;
19193;SDS011;9729;52.296;13.260;2023-01-23T10:41:33;50.40;;;26.30;;
19193;SDS011;9729;52.296;13.260;2023-01-23T10:44:00;50.53;;;24.57;;
19193;SDS011;9729;52.296;13.260;2023-01-23T10:46:29;49.20;;;21.03;;
19193;SDS011;9729;52.296;13.260;2023-01-23T10:49:00;46.70;;;21.83;;
19193;SDS011;9729;52.296;13.260;2023-01-23T10:51:41;45.47;;;21.90;;
19193;SDS011;9729;52.296;13.260;2023-01-23T10:54:12;42.70;;;20.10;;
19193;SDS011;9729;52.296;13.260;2023-01-23T10:56:45;43.93;;;21.77;;
19193;SDS011;9729;52.296;13.260;2023-01-23T10:59:18;49.73;;;23.90;;
19193;SDS011;9729;52.296;13.260;2023-01-23T11:01:57;44.13;;;22.90;;
19193;SDS011;9729;52.296;13.260;2023-01-23T11:04:27;40.43;;;20.03;;
19193;SDS011;9729;52.296;13.260;2023-01-23T11:06:59;40.70;;;21.37;;
19193;SDS011;9729;52.296;13.260;2023-01-23T11:09:27;44.73;;;20.63;;
19193;SDS011;9729;52.296;13.260;2023-01-23T11:11:59;43.23;;;20.17;;
19193;SDS011;9729;52.296;13.260;2023-01-23T11:14:26;43.70;;;20.23;;
19193;SDS011;9729;52.296;13.260;2023-01-23T11:17:00;44.53;;;22.00;;
19193;SDS011;9729;52.296;13.260;2023-01-23T11:19:29;54.53;;;26.37;;
19193;SDS011;9729;52.296;13.260;2023-01-23T11:21:58;50.10;;;24.63;;
19193;SDS011;9729;52.296;13.260;2023-01-23T11:24:31;51.93;;;26.33;;
19193;SDS011;9729;52.296;13.260;2023-01-23T11:27:00;55.93;;;26.43;;
19193;SDS011;9729;52.296;13.260;2023-01-23T11:29:28;54.37;;;23.00;;
19193;SDS011;9729;52.296;13.260;2023-01-23T11:31:57;55.53;;;26.30;;
19193;SDS011;9729;52.296;13.260;2023-01-23T11:34:27;53.43;;;27.20;;
19193;SDS011;9729;52.296;13.260;2023-01-23T11:36:58;54.53;;;24.57;;
19193;SDS011;9729;52.296;13.260;2023-01-23T11:39:35;54.03;;;26.10;;
19193;SDS011;9729;52.296;13.260;2023-01-23T11:42:07;52.60;;;24.53;;
19193;SDS011;9729;52.296;13.260;2023-01-23T11:44:35;48.00;;;23.47;;
19193;SDS011;9729;52.296;13.260;2023-01-23T11:47:08;46.77;;;20.90;;
19193;SDS011;9729;52.296;13.260;2023-01-23T11:52:39;46.77;;;23.37;;
19193;SDS011;9729;52.296;13.260;2023-01-23T11:55:17;40.20;;;19.07;;
19193;SDS011;9729;52.296;13.260;2023-01-23T11:57:58;53.30;;;23.87;;
19193;SDS011;9729;52.296;13.260;2023-01-23T12:00:30;46.33;;;22.57;;
19193;SDS011;9729;52.296;13.260;2023-01-23T12:03:12;47.20;;;23.03;;
19193;SDS011;9729;52.296;13.260;2023-01-23T12:05:53;42.47;;;20.00;;
19193;SDS011;9729;52.296;13.260;2023-01-23T12:08:30;48.03;;;23.63;;
19193;SDS011;9729;52.296;13.260;2023-01-23T12:11:04;43.87;;;21.07;;
19193;SDS011;9729;52.296;13.260;2023-01-23T12:13:50;52.30;;;23.93;;
19193;SDS011;9729;52.296;13.260;2023-01-23T12:16:22;40.23;;;21.40;;
19193;SDS011;9729;52.296;13.260;2023-01-23T12:19:00;45.27;;;23.60;;
19193;SDS011;9729;52.296;13.260;2023-01-23T12:21:39;45.57;;;22.23;;
19193;SDS011;9729;52.296;13.260;2023-01-23T12:24:11;48.80;;;24.67;;
19193;SDS011;9729;52.296;13.260;2023-01-23T12:26:45;45.40;;;23.50;;
19193;SDS011;9729;52.296;13.260;2023-01-23T12:32:19;46.33;;;22.33;;
19193;SDS011;9729;52.296;13.260;2023-01-23T12:34:59;45.90;;;23.43;;
19193;SDS011;9729;52.296;13.260;2023-01-23T12:37:41;44.37;;;23.67;;
19193;SDS011;9729;52.296;13.260;2023-01-23T12:40:16;50.03;;;24.77;;
19193;SDS011;9729;52.296;13.260;2023-01-23T12:42:47;46.03;;;22.23;;
19193;SDS011;9729;52.296;13.260;2023-01-23T12:45:19;40.43;;;20.67;;
19193;SDS011;9729;52.296;13.260;2023-01-23T12:47:54;41.13;;;20.07;;
19193;SDS011;9729;52.296;13.260;2023-01-23T12:50:26;42.03;;;21.03;;
19193;SDS011;9729;52.296;13.260;2023-01-23T12:53:02;35.77;;;18.70;;
19193;SDS011;9729;52.296;13.260;2023-01-23T12:55:32;42.33;;;21.87;;
19193;SDS011;9729;52.296;13.260;2023-01-23T12:58:01;42.07;;;21.70;;
19193;SDS011;9729;52.296;13.260;2023-01-23T13:00:37;39.13;;;22.43;;
19193;SDS011;9729;52.296;13.260;2023-01-23T13:03:14;45.30;;;23.10;;
19193;SDS011;9729;52.296;13.260;2023-01-23T13:05:52;44.43;;;23.40;;
19193;SDS011;9729;52.296;13.260;2023-01-23T13:08:28;49.03;;;22.47;;
19193;SDS011;9729;52.296;13.260;2023-01-23T13:11:00;47.07;;;22.80;;
19193;SDS011;9729;52.296;13.260;2023-01-23T13:13:46;41.77;;;21.93;;
19193;SDS011;9729;52.296;13.260;2023-01-23T13:16:14;40.27;;;22.20;;
19193;SDS011;9729;52.296;13.260;2023-01-23T13:18:50;42.53;;;22.83;;
19193;SDS011;9729;52.296;13.260;2023-01-23T13:21:36;38.17;;;20.87;;
19193;SDS011;9729;52.296;13.260;2023-01-23T13:24:30;37.97;;;21.80;;
19193;SDS011;9729;52.296;13.260;2023-01-23T13:27:32;48.13;;;22.13;;
19193;SDS011;9729;52.296;13.260;2023-01-23T13:30:04;35.10;;;18.80;;
19193;SDS011;9729;52.296;13.260;2023-01-23T13:32:39;41.80;;;21.40;;
19193;SDS011;9729;52.296;13.260;2023-01-23T13:35:24;44.03;;;21.43;;
19193;SDS011;9729;52.296;13.260;2023-01-23T13:38:31;39.40;;;20.33;;
19193;SDS011;9729;52.296;13.260;2023-01-23T13:44:00;40.10;;;18.93;;
19193;SDS011;9729;52.296;13.260;2023-01-23T13:46:30;31.30;;;17.57;;
19193;SDS011;9729;52.296;13.260;2023-01-23T13:49:03;35.00;;;15.53;;
19193;SDS011;9729;52.296;13.260;2023-01-23T13:51:55;31.90;;;18.70;;
19193;SDS011;9729;52.296;13.260;2023-01-23T13:54:24;34.10;;;19.10;;
19193;SDS011;9729;52.296;13.260;2023-01-23T13:57:14;37.50;;;19.70;;
19193;SDS011;9729;52.296;13.260;2023-01-23T13:59:41;38.27;;;19.03;;
19193;SDS011;9729;52.296;13.260;2023-01-23T14:02:16;32.03;;;17.20;;
19193;SDS011;9729;52.296;13.260;2023-01-23T14:05:03;29.83;;;15.97;;
19193;SDS011;9729;52.296;13.260;2023-01-23T14:07:38;28.07;;;15.43;;
19193;SDS011;9729;52.296;13.260;2023-01-23T14:10:18;33.90;;;16.30;;
19193;SDS011;9729;52.296;13.260;2023-01-23T14:12:49;31.57;;;15.23;;
19193;SDS011;9729;52.296;13.260;2023-01-23T14:15:21;35.13;;;15.57;;
19193;SDS011;9729;52.296;13.260;2023-01-23T14:18:16;32.60;;;15.33;;
19193;SDS011;9729;52.296;13.260;2023-01-23T14:20:44;30.27;;;15.80;;
19193;SDS011;9729;52.296;13.260;2023-01-23T14:23:16;30.77;;;15.83;;
19193;SDS011;9729;52.296;13.260;2023-01-23T14:25:44;28.63;;;16.03;;
19193;SDS011;9729;52.296;13.260;2023-01-23T14:28:13;29.53;;;16.03;;
19193;SDS011;9729;52.296;13.260;2023-01-23T14:30:46;30.00;;;16.03;;
19193;SDS011;9729;52.296;13.260;2023-01-23T14:33:18;26.40;;;11.97;;
19193;SDS011;9729;52.296;13.260;2023-01-23T14:35:44;30.87;;;15.07;;
19193;SDS011;9729;52.296;13.260;2023-01-23T14:38:13;29.03;;;16.00;;
19193;SDS011;9729;52.296;13.260;2023-01-23T14:40:43;33.03;;;17.73;;
19193;SDS011;9729;52.296;13.260;2023-01-23T14:43:16;38.87;;;18.07;;
19193;SDS011;9729;52.296;13.260;2023-01-23T14:45:45;33.40;;;17.70;;
19193;SDS011;9729;52.296;13.260;2023-01-23T14:48:13;29.87;;;16.87;;
19193;SDS011;9729;52.296;13.260;2023-01-23T14:50:41;30.83;;;17.00;;
19193;SDS011;9729;52.296;13.260;2023-01-23T14:53:10;31.27;;;16.50;;
19193;SDS011;9729;52.296;13.260;2023-01-23T14:55:41;26.90;;;15.50;;
19193;SDS011;9729;52.296;13.260;2023-01-23T14:58:20;33.00;;;18.43;;